createdAt,value
2018-04-16T00:01:56.434Z,9.90
2018-04-16T00:04:46.366Z,10.53
2018-04-16T00:07:36.313Z,19.87
2018-04-16T00:10:26.102Z,12.53
2018-04-16T00:13:16.025Z,10.73
2018-04-16T00:16:05.909Z,15.30
2018-04-16T00:18:55.919Z,11.40
2018-04-16T00:21:46.132Z,41.60
2018-04-16T00:24:36.026Z,11.93
2018-04-16T00:27:25.766Z,10.60
2018-04-16T00:30:15.795Z,10.47
2018-04-16T00:33:11.765Z,13.60
2018-04-16T00:36:20.157Z,12.10
2018-04-16T00:39:15.817Z,11.40
2018-04-16T00:42:11.779Z,12.73
2018-04-16T00:45:07.711Z,11.13
2018-04-16T00:48:03.621Z,10.53
2018-04-16T00:50:59.423Z,10.80
2018-04-16T00:54:01.543Z,11.60
2018-04-16T00:56:56.811Z,13.43
2018-04-16T00:59:52.566Z,8.50
2018-04-16T01:02:48.663Z,11.40
2018-04-16T01:05:44.668Z,12.93
2018-04-16T01:08:40.553Z,11.47
2018-04-16T01:11:36.624Z,12.07
2018-04-16T01:14:32.247Z,9.47
2018-04-16T01:17:28.101Z,13.23
2018-04-16T01:20:23.734Z,9.80
2018-04-16T01:23:19.908Z,11.53
2018-04-16T01:26:15.580Z,8.93
2018-04-16T01:29:11.485Z,10.60
2018-04-16T01:32:07.532Z,9.37
2018-04-16T01:35:03.475Z,25.00
2018-04-16T01:37:59.506Z,10.53
2018-04-16T01:40:55.442Z,10.50
2018-04-16T01:44:03.662Z,10.93
2018-04-16T01:46:58.904Z,12.27
2018-04-16T01:49:54.901Z,9.40
2018-04-16T01:52:50.182Z,10.80
2018-04-16T01:55:46.105Z,10.20
2018-04-16T01:58:42.175Z,9.87
2018-04-16T02:01:38.164Z,10.20
2018-04-16T02:04:34.050Z,7.63
2018-04-16T02:07:30.097Z,8.10
2018-04-16T02:10:35.455Z,10.07
2018-04-16T02:13:30.753Z,10.23
2018-04-16T02:16:26.590Z,8.23
2018-04-16T02:19:22.521Z,10.67
2018-04-16T02:22:18.505Z,9.57
2018-04-16T02:25:24.614Z,11.43
2018-04-16T02:28:20.185Z,9.63
2018-04-16T02:31:16.151Z,9.87
2018-04-16T02:34:11.951Z,10.27
2018-04-16T02:37:07.704Z,9.73
2018-04-16T02:40:03.669Z,10.23
2018-04-16T02:43:10.211Z,9.97
2018-04-16T02:46:05.732Z,11.37
2018-04-16T02:49:01.513Z,10.73
2018-04-16T02:51:56.723Z,8.37
2018-04-16T02:54:52.774Z,10.47
2018-04-16T02:57:48.692Z,10.70
2018-04-16T03:00:44.530Z,9.40
2018-04-16T03:03:40.432Z,8.87
2018-04-16T03:06:36.457Z,9.20
2018-04-16T03:09:32.391Z,11.07
2018-04-16T03:12:28.442Z,9.07
2018-04-16T03:15:24.665Z,8.60
2018-04-16T03:18:20.932Z,12.10
2018-04-16T03:21:16.194Z,10.80
2018-04-16T03:24:12.028Z,10.13
2018-04-16T03:27:07.949Z,11.10
2018-04-16T03:30:03.960Z,18.73
2018-04-16T03:33:00.513Z,12.10
2018-04-16T03:35:56.572Z,12.70
2018-04-16T03:38:52.185Z,12.60
2018-04-16T03:41:48.001Z,9.83
2018-04-16T03:44:44.090Z,10.63
2018-04-16T03:47:39.957Z,11.17
2018-04-16T03:50:35.752Z,11.43
2018-04-16T03:53:43.784Z,11.80
2018-04-16T03:56:33.674Z,11.37
2018-04-16T03:59:23.786Z,13.30
2018-04-16T04:02:13.837Z,10.20
2018-04-16T04:05:03.023Z,12.60
2018-04-16T04:07:52.788Z,12.17
2018-04-16T04:10:42.698Z,11.10
2018-04-16T04:13:32.739Z,11.43
2018-04-16T04:16:22.051Z,10.30
2018-04-16T04:19:11.771Z,50.23
2018-04-16T04:22:01.798Z,13.17
2018-04-16T04:24:57.751Z,8.67
2018-04-16T04:27:53.698Z,11.47
2018-04-16T04:30:52.939Z,9.37
2018-04-16T04:33:42.803Z,12.03
2018-04-16T04:36:32.925Z,13.97
2018-04-16T04:39:22.297Z,12.23
2018-04-16T04:42:12.287Z,9.87
2018-04-16T04:45:02.194Z,12.30
2018-04-16T04:47:51.938Z,14.20
2018-04-16T04:50:41.731Z,10.90
2018-04-16T04:53:31.416Z,10.90
2018-04-16T04:56:21.264Z,10.83
2018-04-16T04:59:10.861Z,10.73
2018-04-16T05:02:00.838Z,10.37
2018-04-16T05:04:50.925Z,11.80
2018-04-16T05:07:40.968Z,11.77
2018-04-16T05:10:31.176Z,10.03
2018-04-16T05:13:21.010Z,9.97
2018-04-16T05:16:10.151Z,11.83
2018-04-16T05:19:00.232Z,12.93
2018-04-16T05:21:50.233Z,11.17
2018-04-16T05:24:39.520Z,12.07
2018-04-16T05:27:29.159Z,13.07
2018-04-16T05:30:18.260Z,13.17
2018-04-16T05:33:08.121Z,14.90
2018-04-16T05:35:58.030Z,13.43
2018-04-16T05:38:48.092Z,11.67
2018-04-16T05:41:38.315Z,13.83
2018-04-16T05:44:27.916Z,12.67
2018-04-16T05:47:18.011Z,11.03
2018-04-16T05:50:08.087Z,16.07
2018-04-16T05:52:57.923Z,13.63
2018-04-16T05:55:47.975Z,15.77
2018-04-16T05:58:37.697Z,12.00
2018-04-16T06:01:27.313Z,12.70
2018-04-16T06:04:17.140Z,13.43
2018-04-16T06:07:06.936Z,12.87
2018-04-16T06:09:56.802Z,11.93
2018-04-16T06:12:46.635Z,15.47
2018-04-16T06:15:36.477Z,14.43
2018-04-16T06:18:26.990Z,15.60
2018-04-16T06:21:16.240Z,18.33
2018-04-16T06:24:06.061Z,14.50
2018-04-16T06:26:55.172Z,17.13
2018-04-16T06:29:44.936Z,21.80
2018-04-16T06:32:35.015Z,17.10
2018-04-16T06:35:25.659Z,18.63
2018-04-16T06:38:15.069Z,16.07
2018-04-16T06:41:05.171Z,19.47
2018-04-16T06:43:55.129Z,16.37
2018-04-16T06:46:45.241Z,16.33
2018-04-16T06:49:34.305Z,20.00
2018-04-16T06:52:23.379Z,16.07
2018-04-16T06:55:13.341Z,18.23
2018-04-16T06:58:03.010Z,22.07
2018-04-16T07:00:53.009Z,14.83
2018-04-16T07:03:43.021Z,15.73
2018-04-16T07:06:33.944Z,17.23
2018-04-16T07:09:24.089Z,19.23
2018-04-16T07:12:13.823Z,20.43
2018-04-16T07:15:03.643Z,16.43
2018-04-16T07:17:53.437Z,17.13
2018-04-16T07:20:43.391Z,21.20
2018-04-16T07:23:33.106Z,18.83
2018-04-16T07:26:23.061Z,18.70
2018-04-16T07:29:13.163Z,19.43
2018-04-16T07:32:02.872Z,17.57
2018-04-16T07:34:52.869Z,20.30
2018-04-16T07:37:42.845Z,18.80
2018-04-16T07:40:32.942Z,17.57
2018-04-16T07:43:23.088Z,16.43
2018-04-16T07:46:12.894Z,19.63
2018-04-16T07:49:02.963Z,15.60
2018-04-16T07:51:53.047Z,27.63
2018-04-16T07:54:42.318Z,19.13
2018-04-16T07:57:31.807Z,19.77
2018-04-16T08:00:21.612Z,15.80
2018-04-16T08:03:11.664Z,19.10
2018-04-16T08:06:01.399Z,17.87
2018-04-16T08:08:51.577Z,15.53
2018-04-16T08:11:41.804Z,17.73
2018-04-16T08:14:31.906Z,16.03
2018-04-16T08:17:21.738Z,22.00
2018-04-16T08:20:11.895Z,17.50
2018-04-16T08:23:01.153Z,15.83
2018-04-16T08:25:50.843Z,12.50
2018-04-16T08:28:40.449Z,14.77
2018-04-16T08:31:30.147Z,17.20
2018-04-16T08:34:20.065Z,16.47
2018-04-16T08:37:09.982Z,18.53
2018-04-16T08:39:59.978Z,19.00
2018-04-16T08:42:49.890Z,18.93
2018-04-16T08:45:40.015Z,17.87
2018-04-16T08:48:29.911Z,16.03
2018-04-16T08:51:19.809Z,15.83
2018-04-16T08:54:09.824Z,15.47
2018-04-16T08:56:59.520Z,15.87
2018-04-16T08:59:49.609Z,15.27
2018-04-16T09:02:39.531Z,15.60
2018-04-16T09:05:29.762Z,13.67
2018-04-16T09:08:19.270Z,14.53
2018-04-16T09:11:08.609Z,14.10
2018-04-16T09:13:58.635Z,12.90
2018-04-16T09:16:48.773Z,15.77
2018-04-16T09:19:38.596Z,18.03
2018-04-16T09:22:28.545Z,18.43
2018-04-16T09:25:18.698Z,14.57
2018-04-16T09:28:07.958Z,13.70
2018-04-16T09:30:57.776Z,13.30
2018-04-16T09:33:47.772Z,16.07
2018-04-16T09:36:37.728Z,11.57
2018-04-16T09:39:27.621Z,16.40
2018-04-16T09:42:17.576Z,16.70
2018-04-16T09:45:07.315Z,12.37
2018-04-16T09:47:57.577Z,13.67
2018-04-16T09:50:47.179Z,13.07
2018-04-16T09:53:37.278Z,15.27
2018-04-16T09:56:27.224Z,12.93
2018-04-16T09:59:17.117Z,14.23
2018-04-16T10:02:07.200Z,13.73
2018-04-16T10:04:56.847Z,20.60
2018-04-16T10:07:47.127Z,13.13
2018-04-16T10:10:36.301Z,16.33
2018-04-16T10:13:25.539Z,13.93
2018-04-16T10:16:15.515Z,15.47
2018-04-16T10:19:06.542Z,15.90
2018-04-16T10:24:51.532Z,13.73
2018-04-16T10:27:41.666Z,14.83
2018-04-16T10:30:31.632Z,14.97
2018-04-16T10:33:21.825Z,15.33
2018-04-16T10:36:12.914Z,12.77
2018-04-16T10:39:02.916Z,11.57
2018-04-16T10:41:53.070Z,12.17
2018-04-16T10:44:42.978Z,13.97
2018-04-16T10:47:32.728Z,13.70
2018-04-16T10:50:22.145Z,13.70
2018-04-16T10:53:12.037Z,12.30
2018-04-16T10:56:01.768Z,13.60
2018-04-16T10:58:51.455Z,11.07
2018-04-16T11:01:41.380Z,14.13
2018-04-16T11:04:31.823Z,13.17
2018-04-16T11:07:21.532Z,11.83
2018-04-16T11:10:11.588Z,10.77
2018-04-16T11:13:00.858Z,10.43
2018-04-16T11:15:51.131Z,10.57
2018-04-16T11:18:40.732Z,8.80
2018-04-16T11:21:30.436Z,9.47
2018-04-16T11:24:20.513Z,10.40
2018-04-16T11:27:10.486Z,12.10
2018-04-16T11:30:00.494Z,13.27
2018-04-16T11:32:50.461Z,9.30
2018-04-16T11:35:40.484Z,10.33
2018-04-16T11:38:30.436Z,9.03
2018-04-16T11:41:20.520Z,12.07
2018-04-16T11:44:11.452Z,10.87
2018-04-16T11:47:02.493Z,12.73
2018-04-16T11:49:52.507Z,11.43
2018-04-16T11:52:43.564Z,11.07
2018-04-16T11:55:34.439Z,9.63
2018-04-16T11:58:26.136Z,9.83
2018-04-16T12:01:17.264Z,11.73
2018-04-16T12:04:07.660Z,9.03
2018-04-16T12:06:56.949Z,7.60
2018-04-16T12:09:46.613Z,8.57
2018-04-16T12:12:36.359Z,9.13
2018-04-16T12:15:29.819Z,7.47
2018-04-16T12:18:20.148Z,7.70
2018-04-16T12:21:11.136Z,10.37
2018-04-16T12:24:01.229Z,8.27
2018-04-16T12:26:57.331Z,8.47
2018-04-16T12:29:54.508Z,10.00
2018-04-16T12:32:43.710Z,9.93
2018-04-16T12:35:33.602Z,8.30
2018-04-16T12:38:23.772Z,9.30
2018-04-16T12:41:13.800Z,10.03
2018-04-16T12:44:10.329Z,7.80
2018-04-16T12:47:02.335Z,6.80
2018-04-16T12:49:51.900Z,9.37
2018-04-16T12:52:41.935Z,8.57
2018-04-16T12:55:32.083Z,9.07
2018-04-16T12:58:22.150Z,11.17
2018-04-16T13:01:17.490Z,9.13
2018-04-16T13:04:13.748Z,8.17
2018-04-16T13:07:09.641Z,10.37
2018-04-16T13:10:05.286Z,9.47
2018-04-16T13:12:55.075Z,11.07
2018-04-16T13:15:44.986Z,10.40
2018-04-16T13:18:40.683Z,10.23
2018-04-16T13:21:30.649Z,8.17
2018-04-16T13:24:21.791Z,9.30
2018-04-16T13:27:11.814Z,9.13
2018-04-16T13:30:02.943Z,10.80
2018-04-16T13:32:52.893Z,10.37
2018-04-16T13:35:44.913Z,11.27
2018-04-16T13:38:35.236Z,9.70
2018-04-16T13:41:25.272Z,11.40
2018-04-16T13:44:15.171Z,9.70
2018-04-16T13:47:06.020Z,12.40
2018-04-16T13:50:09.167Z,11.07
2018-04-16T13:52:59.084Z,7.93
2018-04-16T13:55:48.408Z,9.03
2018-04-16T13:58:38.278Z,7.33
2018-04-16T14:01:28.172Z,5.83
2018-04-16T14:04:25.148Z,7.23
2018-04-16T14:07:15.980Z,7.80
2018-04-16T14:10:06.185Z,6.33
2018-04-16T14:13:03.054Z,5.57
2018-04-16T14:15:53.306Z,6.90
2018-04-16T14:18:49.219Z,6.03
2018-04-16T14:21:38.737Z,6.20
2018-04-16T14:24:34.550Z,7.97
2018-04-16T14:27:30.399Z,6.30
2018-04-16T14:30:20.165Z,5.70
2018-04-16T14:33:11.091Z,8.33
2018-04-16T14:36:00.980Z,6.40
2018-04-16T14:38:51.199Z,6.20
2018-04-16T14:41:41.114Z,6.97
2018-04-16T14:44:36.382Z,7.63
2018-04-16T14:47:33.444Z,6.60
2018-04-16T14:50:29.364Z,5.63
2018-04-16T14:53:18.880Z,6.20
2018-04-16T14:56:08.809Z,5.77
2018-04-16T14:59:05.038Z,3.67
2018-04-16T15:01:54.841Z,2.77
2018-04-16T15:04:51.983Z,3.70
2018-04-16T15:07:43.167Z,3.53
2018-04-16T15:10:35.514Z,4.53
2018-04-16T15:13:26.029Z,3.80
2018-04-16T15:16:21.777Z,3.33
2018-04-16T15:19:12.543Z,4.77
2018-04-16T15:22:02.020Z,6.67
2018-04-16T15:24:52.106Z,4.90
2018-04-16T15:27:43.010Z,5.67
2018-04-16T15:30:32.476Z,5.07
2018-04-16T15:33:22.089Z,5.23
2018-04-16T15:36:11.827Z,5.20
2018-04-16T15:39:01.697Z,7.30
2018-04-16T15:41:52.401Z,6.93
2018-04-16T15:44:42.271Z,6.40
2018-04-16T15:47:32.121Z,7.90
2018-04-16T15:50:22.402Z,6.73
2018-04-16T15:53:12.296Z,6.37
2018-04-16T15:56:02.382Z,5.87
2018-04-16T15:58:52.314Z,6.50
2018-04-16T16:01:41.428Z,6.67
2018-04-16T16:04:30.603Z,6.00
2018-04-16T16:07:20.541Z,6.67
2018-04-16T16:10:10.574Z,6.63
2018-04-16T16:13:01.568Z,7.30
2018-04-16T16:15:51.667Z,7.73
2018-04-16T16:18:41.429Z,6.60
2018-04-16T16:21:31.550Z,9.10
2018-04-16T16:24:21.445Z,6.70
2018-04-16T16:27:11.438Z,8.97
2018-04-16T16:30:01.286Z,8.33
2018-04-16T16:32:51.334Z,6.73
2018-04-16T16:35:40.677Z,8.07
2018-04-16T16:38:30.574Z,9.17
2018-04-16T16:41:19.810Z,8.73
2018-04-16T16:44:09.657Z,9.47
2018-04-16T16:46:59.569Z,12.97
2018-04-16T16:49:49.243Z,9.47
2018-04-16T16:52:38.997Z,8.10
2018-04-16T16:55:28.689Z,9.17
2018-04-16T16:58:18.790Z,8.50
2018-04-16T17:01:08.614Z,8.13
2018-04-16T17:03:58.584Z,9.13
2018-04-16T17:06:48.616Z,9.63
2018-04-16T17:09:38.468Z,9.37
2018-04-16T17:12:28.619Z,11.23
2018-04-16T17:15:18.418Z,10.30
2018-04-16T17:18:08.534Z,10.77
2018-04-16T17:20:58.526Z,10.73
2018-04-16T17:23:48.594Z,11.03
2018-04-16T17:26:38.500Z,11.13
2018-04-16T17:29:28.541Z,10.97
2018-04-16T17:32:18.218Z,11.60
2018-04-16T17:35:08.233Z,11.87
2018-04-16T17:37:58.290Z,10.47
2018-04-16T17:40:49.876Z,11.27
2018-04-16T17:43:43.091Z,11.73
2018-04-16T17:46:38.202Z,10.53
2018-04-16T17:49:43.276Z,9.47
2018-04-16T17:52:45.322Z,9.57
2018-04-16T17:55:37.171Z,12.10
2018-04-16T18:01:41.349Z,10.70
2018-04-16T18:04:32.177Z,12.70
2018-04-16T18:10:23.078Z,10.80
2018-04-16T18:13:13.794Z,14.60
2018-04-16T18:16:03.592Z,10.53
2018-04-16T18:18:52.870Z,13.10
2018-04-16T18:21:42.763Z,12.70
2018-04-16T18:24:32.856Z,10.50
2018-04-16T18:27:25.368Z,12.33
2018-04-16T18:30:19.557Z,10.27
2018-04-16T18:33:09.490Z,10.57
2018-04-16T18:36:09.595Z,10.70
2018-04-16T18:38:58.797Z,10.43
2018-04-16T18:42:18.402Z,10.40
2018-04-16T18:45:07.802Z,11.37
2018-04-16T18:47:57.892Z,11.67
2018-04-16T18:50:47.683Z,10.33
2018-04-16T18:53:45.800Z,9.80
2018-04-16T18:56:35.920Z,11.13
2018-04-16T18:59:25.822Z,12.10
2018-04-16T19:02:15.732Z,10.77
2018-04-16T19:05:05.992Z,8.83
2018-04-16T19:07:55.668Z,9.80
2018-04-16T19:10:45.564Z,11.67
2018-04-16T19:13:35.610Z,9.20
2018-04-16T19:16:25.484Z,9.37
2018-04-16T19:19:15.359Z,12.20
2018-04-16T19:22:05.395Z,10.23
2018-04-16T19:24:55.273Z,13.00
2018-04-16T19:27:50.998Z,9.30
2018-04-16T19:30:40.796Z,8.23
2018-04-16T19:33:36.713Z,8.83
2018-04-16T19:36:26.648Z,8.30
2018-04-16T19:39:16.446Z,9.27
2018-04-16T19:42:12.459Z,7.83
2018-04-16T19:45:02.202Z,7.87
2018-04-16T19:47:52.226Z,7.97
2018-04-16T19:50:42.162Z,5.43
2018-04-16T19:53:32.238Z,6.53
2018-04-16T19:56:28.358Z,6.47
2018-04-16T19:59:18.204Z,6.10
2018-04-16T20:02:13.603Z,9.20
2018-04-16T20:05:03.348Z,7.10
2018-04-16T20:07:53.174Z,5.67
2018-04-16T20:10:43.491Z,6.70
2018-04-16T20:13:33.623Z,5.00
2018-04-16T20:16:23.456Z,4.63
2018-04-16T20:19:13.298Z,8.00
2018-04-16T20:22:03.341Z,8.43
2018-04-16T20:24:53.183Z,3.77
2018-04-16T20:27:42.777Z,4.37
2018-04-16T20:30:32.630Z,6.37
2018-04-16T20:33:22.322Z,4.70
2018-04-16T20:36:12.208Z,5.43
2018-04-16T20:39:02.299Z,4.70
2018-04-16T20:41:52.262Z,4.23
2018-04-16T20:44:42.396Z,3.93
2018-04-16T20:47:32.255Z,8.37
2018-04-16T20:50:22.254Z,4.50
2018-04-16T20:53:11.579Z,3.47
2018-04-16T20:56:01.390Z,6.03
2018-04-16T20:58:51.449Z,3.83
2018-04-16T21:01:40.685Z,3.70
2018-04-16T21:04:30.603Z,4.30
2018-04-16T21:07:20.816Z,4.20
2018-04-16T21:10:10.722Z,4.30
2018-04-16T21:13:00.573Z,3.57
2018-04-16T21:15:55.700Z,4.37
2018-04-16T21:18:45.903Z,2.43
2018-04-16T21:21:35.632Z,3.30
2018-04-16T21:24:25.741Z,4.30
2018-04-16T21:27:15.745Z,3.13
2018-04-16T21:30:05.644Z,3.80
2018-04-16T21:32:55.013Z,2.43
2018-04-16T21:35:44.404Z,3.87
2018-04-16T21:38:34.287Z,8.20
2018-04-16T21:41:24.169Z,2.07
2018-04-16T21:44:13.620Z,2.53
2018-04-16T21:47:03.627Z,1.70
2018-04-16T21:49:53.715Z,3.97
2018-04-16T21:52:43.814Z,2.70
2018-04-16T21:55:33.672Z,4.37
2018-04-16T21:58:23.834Z,2.17
2018-04-16T22:01:13.496Z,4.47
2018-04-16T22:04:03.244Z,1.90
2018-04-16T22:06:53.071Z,2.77
2018-04-16T22:09:43.020Z,3.03
2018-04-16T22:12:32.906Z,4.07
2018-04-16T22:15:22.932Z,2.50
2018-04-16T22:18:13.519Z,3.53
2018-04-16T22:21:02.977Z,2.67
2018-04-16T22:23:52.934Z,2.53
2018-04-16T22:26:42.741Z,5.70
2018-04-16T22:29:41.218Z,1.50
2018-04-16T22:32:32.299Z,1.73
2018-04-16T22:35:23.562Z,3.80
2018-04-16T22:38:13.523Z,1.53
2018-04-16T22:41:02.691Z,1.83
2018-04-16T22:43:56.459Z,0.80
2018-04-16T22:46:58.401Z,1.13
2018-04-16T22:49:47.732Z,2.50
2018-04-16T22:52:36.976Z,1.53
2018-04-16T22:55:27.232Z,0.70
2018-04-16T22:58:17.411Z,5.10
2018-04-16T23:01:07.302Z,1.07
2018-04-16T23:03:57.126Z,1.17
2018-04-16T23:06:46.998Z,2.57
2018-04-16T23:09:37.179Z,4.57
2018-04-16T23:12:33.042Z,2.47
2018-04-16T23:15:23.129Z,2.23
2018-04-16T23:18:21.282Z,1.60
2018-04-16T23:21:11.417Z,1.67
2018-04-16T23:24:01.405Z,2.40
2018-04-16T23:26:51.320Z,2.10
2018-04-16T23:29:41.152Z,2.10
2018-04-16T23:32:31.156Z,3.23
2018-04-16T23:35:21.347Z,1.00
2018-04-16T23:38:11.095Z,0.80
2018-04-16T23:41:01.070Z,1.30
2018-04-16T23:43:50.783Z,2.17
2018-04-16T23:46:40.442Z,2.40
2018-04-16T23:49:30.344Z,6.63
2018-04-16T23:52:20.151Z,1.90
2018-04-16T23:55:10.394Z,7.60
2018-04-16T23:57:59.940Z,1.57
